sensor_id;sensor_type;location;lat;lon;timestamp;P1;durP1;ratioP1;P2;durP2;ratioP2
3407;SDS011;1717;50.240;8.406;2022-09-09T00:01:49;1.43;;;1.00;;
3407;SDS011;1717;50.240;8.406;2022-09-09T00:04:26;1.83;;;0.90;;
3407;SDS011;1717;50.240;8.406;2022-09-09T00:06:56;2.20;;;1.30;;
3407;SDS011;1717;50.240;8.406;2022-09-09T00:09:31;3.07;;;1.20;;
3407;SDS011;1717;50.240;8.406;2022-09-09T00:12:08;0.90;;;0.90;;
3407;SDS011;1717;50.240;8.406;2022-09-09T00:14:39;2.60;;;1.63;;
3407;SDS011;1717;50.240;8.406;2022-09-09T00:17:14;1.80;;;1.10;;
3407;SDS011;1717;50.240;8.406;2022-09-09T00:19:53;2.03;;;0.90;;
3407;SDS011;1717;50.240;8.406;2022-09-09T00:22:27;3.00;;;1.33;;
3407;SDS011;1717;50.240;8.406;2022-09-09T00:24:58;2.00;;;1.10;;
3407;SDS011;1717;50.240;8.406;2022-09-09T00:27:36;3.60;;;1.40;;
3407;SDS011;1717;50.240;8.406;2022-09-09T00:30:13;2.03;;;1.40;;
3407;SDS011;1717;50.240;8.406;2022-09-09T00:32:44;3.20;;;1.50;;
3407;SDS011;1717;50.240;8.406;2022-09-09T00:35:14;1.57;;;0.90;;
3407;SDS011;1717;50.240;8.406;2022-09-09T00:37:44;2.33;;;1.80;;
3407;SDS011;1717;50.240;8.406;2022-09-09T00:40:18;1.73;;;1.43;;
3407;SDS011;1717;50.240;8.406;2022-09-09T00:42:52;1.77;;;1.30;;
3407;SDS011;1717;50.240;8.406;2022-09-09T00:45:37;2.20;;;1.20;;
3407;SDS011;1717;50.240;8.406;2022-09-09T00:48:20;1.07;;;0.97;;
3407;SDS011;1717;50.240;8.406;2022-09-09T00:50:52;3.47;;;1.47;;
3407;SDS011;1717;50.240;8.406;2022-09-09T00:53:29;1.30;;;1.00;;
3407;SDS011;1717;50.240;8.406;2022-09-09T00:56:06;3.70;;;2.00;;
3407;SDS011;1717;50.240;8.406;2022-09-09T00:58:38;1.60;;;1.20;;
3407;SDS011;1717;50.240;8.406;2022-09-09T01:01:08;1.40;;;1.20;;
3407;SDS011;1717;50.240;8.406;2022-09-09T01:03:38;2.90;;;1.23;;
3407;SDS011;1717;50.240;8.406;2022-09-09T01:06:14;0.97;;;0.80;;
3407;SDS011;1717;50.240;8.406;2022-09-09T01:08:49;4.10;;;1.10;;
3407;SDS011;1717;50.240;8.406;2022-09-09T01:11:43;1.23;;;1.10;;
3407;SDS011;1717;50.240;8.406;2022-09-09T01:14:29;2.33;;;1.07;;
3407;SDS011;1717;50.240;8.406;2022-09-09T01:17:05;1.20;;;1.10;;
3407;SDS011;1717;50.240;8.406;2022-09-09T01:19:39;2.20;;;1.20;;
3407;SDS011;1717;50.240;8.406;2022-09-09T01:22:15;3.50;;;1.57;;
3407;SDS011;1717;50.240;8.406;2022-09-09T01:25:01;1.70;;;1.20;;
3407;SDS011;1717;50.240;8.406;2022-09-09T01:27:41;2.03;;;1.70;;
3407;SDS011;1717;50.240;8.406;2022-09-09T01:30:10;3.53;;;1.47;;
3407;SDS011;1717;50.240;8.406;2022-09-09T01:32:40;2.70;;;1.40;;
3407;SDS011;1717;50.240;8.406;2022-09-09T01:35:09;2.20;;;1.20;;
3407;SDS011;1717;50.240;8.406;2022-09-09T01:37:39;3.50;;;1.30;;
3407;SDS011;1717;50.240;8.406;2022-09-09T01:40:06;5.23;;;1.70;;
3407;SDS011;1717;50.240;8.406;2022-09-09T01:42:34;2.27;;;1.30;;
3407;SDS011;1717;50.240;8.406;2022-09-09T01:45:02;2.40;;;1.20;;
3407;SDS011;1717;50.240;8.406;2022-09-09T01:47:31;7.20;;;1.80;;
3407;SDS011;1717;50.240;8.406;2022-09-09T01:49:58;1.73;;;1.30;;
3407;SDS011;1717;50.240;8.406;2022-09-09T01:52:25;5.87;;;1.80;;
3407;SDS011;1717;50.240;8.406;2022-09-09T01:54:52;2.33;;;1.47;;
3407;SDS011;1717;50.240;8.406;2022-09-09T01:57:20;2.60;;;1.90;;
3407;SDS011;1717;50.240;8.406;2022-09-09T01:59:58;4.57;;;1.73;;
3407;SDS011;1717;50.240;8.406;2022-09-09T02:02:33;1.77;;;1.20;;
3407;SDS011;1717;50.240;8.406;2022-09-09T02:05:09;3.00;;;1.60;;
3407;SDS011;1717;50.240;8.406;2022-09-09T02:07:45;1.47;;;1.20;;
3407;SDS011;1717;50.240;8.406;2022-09-09T02:10:16;2.20;;;1.40;;
3407;SDS011;1717;50.240;8.406;2022-09-09T02:12:47;4.07;;;1.40;;
3407;SDS011;1717;50.240;8.406;2022-09-09T02:15:20;3.20;;;1.90;;
3407;SDS011;1717;50.240;8.406;2022-09-09T02:17:52;2.10;;;1.33;;
3407;SDS011;1717;50.240;8.406;2022-09-09T02:20:23;1.87;;;1.40;;
3407;SDS011;1717;50.240;8.406;2022-09-09T02:22:52;4.30;;;1.20;;
3407;SDS011;1717;50.240;8.406;2022-09-09T02:25:21;5.13;;;2.23;;
3407;SDS011;1717;50.240;8.406;2022-09-09T02:27:50;2.70;;;1.87;;
3407;SDS011;1717;50.240;8.406;2022-09-09T02:30:18;3.00;;;1.40;;
3407;SDS011;1717;50.240;8.406;2022-09-09T02:32:46;3.40;;;1.50;;
3407;SDS011;1717;50.240;8.406;2022-09-09T02:35:17;3.03;;;1.33;;
3407;SDS011;1717;50.240;8.406;2022-09-09T02:37:46;2.47;;;1.67;;
3407;SDS011;1717;50.240;8.406;2022-09-09T02:40:15;3.77;;;1.50;;
3407;SDS011;1717;50.240;8.406;2022-09-09T02:42:42;3.90;;;1.90;;
3407;SDS011;1717;50.240;8.406;2022-09-09T02:45:10;4.20;;;2.03;;
3407;SDS011;1717;50.240;8.406;2022-09-09T02:47:41;4.60;;;1.43;;
3407;SDS011;1717;50.240;8.406;2022-09-09T02:50:12;6.17;;;1.80;;
3407;SDS011;1717;50.240;8.406;2022-09-09T02:52:45;5.20;;;1.77;;
3407;SDS011;1717;50.240;8.406;2022-09-09T02:55:24;2.23;;;1.40;;
3407;SDS011;1717;50.240;8.406;2022-09-09T02:58:01;1.87;;;1.50;;
3407;SDS011;1717;50.240;8.406;2022-09-09T03:00:31;2.50;;;1.33;;
3407;SDS011;1717;50.240;8.406;2022-09-09T03:02:59;4.07;;;1.43;;
3407;SDS011;1717;50.240;8.406;2022-09-09T03:05:26;1.30;;;1.20;;
3407;SDS011;1717;50.240;8.406;2022-09-09T03:07:53;1.20;;;1.03;;
3407;SDS011;1717;50.240;8.406;2022-09-09T03:10:20;2.77;;;1.20;;
3407;SDS011;1717;50.240;8.406;2022-09-09T03:12:47;3.03;;;1.10;;
3407;SDS011;1717;50.240;8.406;2022-09-09T03:15:13;1.63;;;1.20;;
3407;SDS011;1717;50.240;8.406;2022-09-09T03:17:41;3.13;;;1.40;;
3407;SDS011;1717;50.240;8.406;2022-09-09T03:20:09;2.03;;;1.50;;
3407;SDS011;1717;50.240;8.406;2022-09-09T03:22:37;2.20;;;1.67;;
3407;SDS011;1717;50.240;8.406;2022-09-09T03:25:04;2.43;;;1.60;;
3407;SDS011;1717;50.240;8.406;2022-09-09T03:27:31;2.50;;;1.30;;
3407;SDS011;1717;50.240;8.406;2022-09-09T03:29:58;1.47;;;1.37;;
3407;SDS011;1717;50.240;8.406;2022-09-09T03:32:28;3.00;;;1.97;;
3407;SDS011;1717;50.240;8.406;2022-09-09T03:34:56;2.50;;;1.43;;
3407;SDS011;1717;50.240;8.406;2022-09-09T03:37:24;4.30;;;1.70;;
3407;SDS011;1717;50.240;8.406;2022-09-09T03:39:51;2.63;;;1.50;;
3407;SDS011;1717;50.240;8.406;2022-09-09T03:42:19;1.93;;;1.50;;
3407;SDS011;1717;50.240;8.406;2022-09-09T03:44:46;3.07;;;1.47;;
3407;SDS011;1717;50.240;8.406;2022-09-09T03:47:14;3.00;;;1.40;;
3407;SDS011;1717;50.240;8.406;2022-09-09T03:49:42;2.23;;;1.67;;
3407;SDS011;1717;50.240;8.406;2022-09-09T03:52:08;3.67;;;1.90;;
3407;SDS011;1717;50.240;8.406;2022-09-09T03:54:37;2.00;;;1.30;;
3407;SDS011;1717;50.240;8.406;2022-09-09T03:57:04;3.80;;;1.47;;
3407;SDS011;1717;50.240;8.406;2022-09-09T03:59:31;2.07;;;1.30;;
3407;SDS011;1717;50.240;8.406;2022-09-09T04:01:58;3.67;;;1.60;;
3407;SDS011;1717;50.240;8.406;2022-09-09T04:04:25;1.70;;;1.40;;
3407;SDS011;1717;50.240;8.406;2022-09-09T04:06:52;2.70;;;1.40;;
3407;SDS011;1717;50.240;8.406;2022-09-09T04:09:19;3.20;;;1.57;;
3407;SDS011;1717;50.240;8.406;2022-09-09T04:11:47;1.87;;;1.70;;
3407;SDS011;1717;50.240;8.406;2022-09-09T04:14:14;2.00;;;1.47;;
3407;SDS011;1717;50.240;8.406;2022-09-09T04:16:42;2.70;;;1.80;;
3407;SDS011;1717;50.240;8.406;2022-09-09T04:19:09;2.93;;;2.00;;
3407;SDS011;1717;50.240;8.406;2022-09-09T04:21:37;4.67;;;1.83;;
3407;SDS011;1717;50.240;8.406;2022-09-09T04:24:05;5.27;;;2.40;;
3407;SDS011;1717;50.240;8.406;2022-09-09T04:26:32;4.53;;;1.90;;
3407;SDS011;1717;50.240;8.406;2022-09-09T04:29:01;3.70;;;2.07;;
3407;SDS011;1717;50.240;8.406;2022-09-09T04:31:28;4.77;;;2.13;;
3407;SDS011;1717;50.240;8.406;2022-09-09T04:33:55;4.50;;;2.60;;
3407;SDS011;1717;50.240;8.406;2022-09-09T04:36:22;3.70;;;2.23;;
3407;SDS011;1717;50.240;8.406;2022-09-09T04:38:49;3.90;;;2.00;;
3407;SDS011;1717;50.240;8.406;2022-09-09T04:41:15;2.23;;;2.03;;
3407;SDS011;1717;50.240;8.406;2022-09-09T04:43:42;3.43;;;2.03;;
3407;SDS011;1717;50.240;8.406;2022-09-09T04:46:11;5.50;;;1.90;;
3407;SDS011;1717;50.240;8.406;2022-09-09T04:48:38;3.40;;;2.27;;
3407;SDS011;1717;50.240;8.406;2022-09-09T04:51:05;3.63;;;2.70;;
3407;SDS011;1717;50.240;8.406;2022-09-09T04:53:34;3.17;;;2.00;;
3407;SDS011;1717;50.240;8.406;2022-09-09T04:56:03;6.43;;;2.70;;
3407;SDS011;1717;50.240;8.406;2022-09-09T04:58:30;5.93;;;2.13;;
3407;SDS011;1717;50.240;8.406;2022-09-09T05:01:02;3.97;;;2.20;;
3407;SDS011;1717;50.240;8.406;2022-09-09T05:03:31;4.17;;;2.47;;
3407;SDS011;1717;50.240;8.406;2022-09-09T05:06:02;3.23;;;2.30;;
3407;SDS011;1717;50.240;8.406;2022-09-09T05:08:33;2.70;;;2.23;;
3407;SDS011;1717;50.240;8.406;2022-09-09T05:11:00;3.20;;;2.27;;
3407;SDS011;1717;50.240;8.406;2022-09-09T05:13:28;3.90;;;1.83;;
3407;SDS011;1717;50.240;8.406;2022-09-09T05:15:57;3.93;;;2.33;;
3407;SDS011;1717;50.240;8.406;2022-09-09T05:18:24;3.70;;;2.70;;
3407;SDS011;1717;50.240;8.406;2022-09-09T05:20:52;3.03;;;2.47;;
3407;SDS011;1717;50.240;8.406;2022-09-09T05:23:24;3.93;;;1.90;;
3407;SDS011;1717;50.240;8.406;2022-09-09T05:25:57;2.40;;;2.20;;
3407;SDS011;1717;50.240;8.406;2022-09-09T05:28:24;5.00;;;2.40;;
3407;SDS011;1717;50.240;8.406;2022-09-09T05:30:55;5.13;;;2.67;;
3407;SDS011;1717;50.240;8.406;2022-09-09T05:33:28;4.37;;;2.30;;
3407;SDS011;1717;50.240;8.406;2022-09-09T05:36:00;4.23;;;1.93;;
3407;SDS011;1717;50.240;8.406;2022-09-09T05:38:28;3.57;;;2.40;;
3407;SDS011;1717;50.240;8.406;2022-09-09T05:40:56;6.57;;;2.50;;
3407;SDS011;1717;50.240;8.406;2022-09-09T05:43:23;3.80;;;2.30;;
3407;SDS011;1717;50.240;8.406;2022-09-09T05:45:58;5.67;;;2.70;;
3407;SDS011;1717;50.240;8.406;2022-09-09T05:48:28;4.40;;;2.50;;
3407;SDS011;1717;50.240;8.406;2022-09-09T05:50:55;2.87;;;2.40;;
3407;SDS011;1717;50.240;8.406;2022-09-09T05:53:24;3.40;;;2.60;;
3407;SDS011;1717;50.240;8.406;2022-09-09T05:55:57;4.90;;;2.30;;
3407;SDS011;1717;50.240;8.406;2022-09-09T05:58:26;6.90;;;2.70;;
3407;SDS011;1717;50.240;8.406;2022-09-09T06:00:59;3.37;;;3.07;;
3407;SDS011;1717;50.240;8.406;2022-09-09T06:03:27;8.17;;;2.50;;
3407;SDS011;1717;50.240;8.406;2022-09-09T06:05:57;2.87;;;2.50;;
3407;SDS011;1717;50.240;8.406;2022-09-09T06:08:26;4.17;;;2.63;;
3407;SDS011;1717;50.240;8.406;2022-09-09T06:10:53;7.87;;;3.00;;
3407;SDS011;1717;50.240;8.406;2022-09-09T06:13:21;5.50;;;2.70;;
3407;SDS011;1717;50.240;8.406;2022-09-09T06:15:49;4.93;;;2.40;;
3407;SDS011;1717;50.240;8.406;2022-09-09T06:18:17;3.13;;;2.13;;
3407;SDS011;1717;50.240;8.406;2022-09-09T06:20:52;3.83;;;2.27;;
3407;SDS011;1717;50.240;8.406;2022-09-09T06:23:20;4.00;;;3.00;;
3407;SDS011;1717;50.240;8.406;2022-09-09T06:25:49;2.40;;;2.20;;
3407;SDS011;1717;50.240;8.406;2022-09-09T06:28:16;5.33;;;2.50;;
3407;SDS011;1717;50.240;8.406;2022-09-09T06:30:44;3.93;;;2.30;;
3407;SDS011;1717;50.240;8.406;2022-09-09T06:33:12;3.17;;;2.17;;
3407;SDS011;1717;50.240;8.406;2022-09-09T06:35:40;3.10;;;2.27;;
3407;SDS011;1717;50.240;8.406;2022-09-09T06:38:06;4.40;;;2.20;;
3407;SDS011;1717;50.240;8.406;2022-09-09T06:40:33;2.60;;;2.20;;
3407;SDS011;1717;50.240;8.406;2022-09-09T06:43:01;4.83;;;2.90;;
3407;SDS011;1717;50.240;8.406;2022-09-09T06:45:28;3.83;;;2.33;;
3407;SDS011;1717;50.240;8.406;2022-09-09T06:47:57;5.40;;;2.73;;
3407;SDS011;1717;50.240;8.406;2022-09-09T06:50:25;5.93;;;2.50;;
3407;SDS011;1717;50.240;8.406;2022-09-09T06:52:52;4.47;;;2.50;;
3407;SDS011;1717;50.240;8.406;2022-09-09T06:55:19;4.93;;;3.00;;
3407;SDS011;1717;50.240;8.406;2022-09-09T06:57:47;4.77;;;3.10;;
3407;SDS011;1717;50.240;8.406;2022-09-09T07:00:17;5.43;;;3.10;;
3407;SDS011;1717;50.240;8.406;2022-09-09T07:02:46;8.73;;;3.43;;
3407;SDS011;1717;50.240;8.406;2022-09-09T07:05:16;6.97;;;3.00;;
3407;SDS011;1717;50.240;8.406;2022-09-09T07:07:44;4.43;;;4.03;;
3407;SDS011;1717;50.240;8.406;2022-09-09T07:10:12;9.13;;;3.43;;
3407;SDS011;1717;50.240;8.406;2022-09-09T07:12:39;3.73;;;3.40;;
3407;SDS011;1717;50.240;8.406;2022-09-09T07:15:07;5.60;;;3.43;;
3407;SDS011;1717;50.240;8.406;2022-09-09T07:17:37;7.00;;;4.10;;
3407;SDS011;1717;50.240;8.406;2022-09-09T07:20:05;6.37;;;4.00;;
3407;SDS011;1717;50.240;8.406;2022-09-09T07:22:33;5.70;;;3.43;;
3407;SDS011;1717;50.240;8.406;2022-09-09T07:25:01;5.00;;;4.50;;
3407;SDS011;1717;50.240;8.406;2022-09-09T07:27:29;7.33;;;4.20;;
3407;SDS011;1717;50.240;8.406;2022-09-09T07:29:56;4.67;;;4.20;;
3407;SDS011;1717;50.240;8.406;2022-09-09T07:32:24;6.53;;;4.03;;
3407;SDS011;1717;50.240;8.406;2022-09-09T07:34:54;7.50;;;4.47;;
3407;SDS011;1717;50.240;8.406;2022-09-09T07:37:23;4.97;;;3.70;;
3407;SDS011;1717;50.240;8.406;2022-09-09T07:39:51;7.90;;;4.53;;
3407;SDS011;1717;50.240;8.406;2022-09-09T07:42:19;12.97;;;4.87;;
3407;SDS011;1717;50.240;8.406;2022-09-09T07:44:46;11.03;;;4.60;;
3407;SDS011;1717;50.240;8.406;2022-09-09T07:47:13;5.87;;;4.57;;
3407;SDS011;1717;50.240;8.406;2022-09-09T07:49:39;9.27;;;5.03;;
3407;SDS011;1717;50.240;8.406;2022-09-09T07:52:08;5.90;;;4.67;;
3407;SDS011;1717;50.240;8.406;2022-09-09T07:54:35;6.60;;;5.03;;
3407;SDS011;1717;50.240;8.406;2022-09-09T07:57:02;8.07;;;5.70;;
3407;SDS011;1717;50.240;8.406;2022-09-09T07:59:29;11.00;;;5.67;;
3407;SDS011;1717;50.240;8.406;2022-09-09T08:01:57;6.23;;;4.83;;
3407;SDS011;1717;50.240;8.406;2022-09-09T08:04:25;6.00;;;5.50;;
3407;SDS011;1717;50.240;8.406;2022-09-09T08:06:53;7.53;;;4.97;;
3407;SDS011;1717;50.240;8.406;2022-09-09T08:09:24;6.60;;;4.70;;
3407;SDS011;1717;50.240;8.406;2022-09-09T08:11:54;6.30;;;4.50;;
3407;SDS011;1717;50.240;8.406;2022-09-09T08:14:21;4.10;;;3.80;;
3407;SDS011;1717;50.240;8.406;2022-09-09T08:16:49;4.40;;;4.00;;
3407;SDS011;1717;50.240;8.406;2022-09-09T08:19:18;5.07;;;4.00;;
3407;SDS011;1717;50.240;8.406;2022-09-09T08:21:45;7.17;;;4.33;;
3407;SDS011;1717;50.240;8.406;2022-09-09T08:24:12;6.60;;;3.90;;
3407;SDS011;1717;50.240;8.406;2022-09-09T08:26:41;9.50;;;3.60;;
3407;SDS011;1717;50.240;8.406;2022-09-09T08:29:10;8.23;;;3.73;;
3407;SDS011;1717;50.240;8.406;2022-09-09T08:31:39;3.53;;;3.23;;
3407;SDS011;1717;50.240;8.406;2022-09-09T08:34:07;3.90;;;3.27;;
3407;SDS011;1717;50.240;8.406;2022-09-09T08:36:36;5.80;;;3.97;;
3407;SDS011;1717;50.240;8.406;2022-09-09T08:39:05;4.80;;;3.67;;
3407;SDS011;1717;50.240;8.406;2022-09-09T08:41:43;5.20;;;3.20;;
3407;SDS011;1717;50.240;8.406;2022-09-09T08:44:29;4.73;;;3.03;;
3407;SDS011;1717;50.240;8.406;2022-09-09T08:47:03;4.40;;;3.23;;
3407;SDS011;1717;50.240;8.406;2022-09-09T08:49:45;9.43;;;3.50;;
3407;SDS011;1717;50.240;8.406;2022-09-09T08:52:25;3.00;;;2.80;;
3407;SDS011;1717;50.240;8.406;2022-09-09T08:54:55;4.43;;;2.63;;
3407;SDS011;1717;50.240;8.406;2022-09-09T08:57:29;3.03;;;2.27;;
3407;SDS011;1717;50.240;8.406;2022-09-09T08:59:58;9.57;;;3.33;;
3407;SDS011;1717;50.240;8.406;2022-09-09T09:02:26;5.10;;;2.93;;
3407;SDS011;1717;50.240;8.406;2022-09-09T09:05:07;5.17;;;3.53;;
3407;SDS011;1717;50.240;8.406;2022-09-09T09:07:48;8.43;;;3.03;;
3407;SDS011;1717;50.240;8.406;2022-09-09T09:10:28;4.43;;;3.20;;
3407;SDS011;1717;50.240;8.406;2022-09-09T09:13:06;8.13;;;3.07;;
3407;SDS011;1717;50.240;8.406;2022-09-09T09:15:38;11.93;;;3.10;;
3407;SDS011;1717;50.240;8.406;2022-09-09T09:18:07;5.90;;;2.80;;
3407;SDS011;1717;50.240;8.406;2022-09-09T09:20:39;3.00;;;2.70;;
3407;SDS011;1717;50.240;8.406;2022-09-09T09:23:13;5.23;;;3.20;;
3407;SDS011;1717;50.240;8.406;2022-09-09T09:25:47;3.10;;;2.80;;
3407;SDS011;1717;50.240;8.406;2022-09-09T09:28:18;5.27;;;2.47;;
3407;SDS011;1717;50.240;8.406;2022-09-09T09:30:49;3.20;;;2.10;;
3407;SDS011;1717;50.240;8.406;2022-09-09T09:33:20;9.50;;;3.80;;
3407;SDS011;1717;50.240;8.406;2022-09-09T09:35:53;5.43;;;2.73;;
3407;SDS011;1717;50.240;8.406;2022-09-09T09:38:20;4.17;;;2.90;;
3407;SDS011;1717;50.240;8.406;2022-09-09T09:40:49;4.60;;;2.57;;
3407;SDS011;1717;50.240;8.406;2022-09-09T09:43:24;2.67;;;2.20;;
3407;SDS011;1717;50.240;8.406;2022-09-09T09:45:52;3.67;;;2.63;;
3407;SDS011;1717;50.240;8.406;2022-09-09T09:48:20;6.23;;;3.10;;
3407;SDS011;1717;50.240;8.406;2022-09-09T09:50:48;3.37;;;2.10;;
3407;SDS011;1717;50.240;8.406;2022-09-09T09:53:19;5.73;;;3.03;;
3407;SDS011;1717;50.240;8.406;2022-09-09T09:55:50;3.97;;;2.30;;
3407;SDS011;1717;50.240;8.406;2022-09-09T09:58:20;4.90;;;2.63;;
3407;SDS011;1717;50.240;8.406;2022-09-09T10:00:50;4.63;;;3.50;;
3407;SDS011;1717;50.240;8.406;2022-09-09T10:03:20;5.13;;;2.73;;
3407;SDS011;1717;50.240;8.406;2022-09-09T10:05:49;4.60;;;3.50;;
3407;SDS011;1717;50.240;8.406;2022-09-09T10:08:17;4.73;;;2.80;;
3407;SDS011;1717;50.240;8.406;2022-09-09T10:10:53;3.37;;;2.50;;
3407;SDS011;1717;50.240;8.406;2022-09-09T10:13:38;3.53;;;2.13;;
3407;SDS011;1717;50.240;8.406;2022-09-09T10:16:16;4.00;;;3.00;;
3407;SDS011;1717;50.240;8.406;2022-09-09T10:18:56;4.20;;;2.37;;
3407;SDS011;1717;50.240;8.406;2022-09-09T10:24:37;4.27;;;2.27;;
3407;SDS011;1717;50.240;8.406;2022-09-09T10:27:21;2.43;;;2.23;;
3407;SDS011;1717;50.240;8.406;2022-09-09T10:30:08;3.73;;;2.30;;
3407;SDS011;1717;50.240;8.406;2022-09-09T10:32:45;2.23;;;1.97;;
3407;SDS011;1717;50.240;8.406;2022-09-09T10:35:24;5.30;;;2.20;;
3407;SDS011;1717;50.240;8.406;2022-09-09T10:38:14;3.30;;;2.10;;
3407;SDS011;1717;50.240;8.406;2022-09-09T10:40:48;4.20;;;2.40;;
3407;SDS011;1717;50.240;8.406;2022-09-09T10:43:39;5.20;;;2.30;;
3407;SDS011;1717;50.240;8.406;2022-09-09T10:46:22;6.43;;;2.03;;
3407;SDS011;1717;50.240;8.406;2022-09-09T10:49:01;2.80;;;1.60;;
3407;SDS011;1717;50.240;8.406;2022-09-09T10:51:39;2.30;;;1.47;;
3407;SDS011;1717;50.240;8.406;2022-09-09T10:54:19;5.60;;;1.90;;
3407;SDS011;1717;50.240;8.406;2022-09-09T10:56:58;5.07;;;2.30;;
3407;SDS011;1717;50.240;8.406;2022-09-09T10:59:30;3.50;;;2.40;;
3407;SDS011;1717;50.240;8.406;2022-09-09T11:02:02;3.80;;;1.93;;
3407;SDS011;1717;50.240;8.406;2022-09-09T11:04:39;3.60;;;2.63;;
3407;SDS011;1717;50.240;8.406;2022-09-09T11:07:09;4.00;;;1.80;;
3407;SDS011;1717;50.240;8.406;2022-09-09T11:09:41;5.90;;;2.07;;
3407;SDS011;1717;50.240;8.406;2022-09-09T11:12:13;2.97;;;2.00;;
3407;SDS011;1717;50.240;8.406;2022-09-09T11:14:45;3.23;;;1.90;;
3407;SDS011;1717;50.240;8.406;2022-09-09T11:17:18;6.00;;;1.93;;
3407;SDS011;1717;50.240;8.406;2022-09-09T11:19:48;3.03;;;2.17;;
3407;SDS011;1717;50.240;8.406;2022-09-09T11:22:18;3.60;;;2.20;;
3407;SDS011;1717;50.240;8.406;2022-09-09T11:24:54;2.37;;;1.67;;
3407;SDS011;1717;50.240;8.406;2022-09-09T11:27:26;4.80;;;2.03;;
3407;SDS011;1717;50.240;8.406;2022-09-09T11:35:45;5.73;;;2.03;;
3407;SDS011;1717;50.240;8.406;2022-09-09T11:38:34;2.10;;;1.40;;
3407;SDS011;1717;50.240;8.406;2022-09-09T11:41:10;4.97;;;1.63;;
3407;SDS011;1717;50.240;8.406;2022-09-09T11:43:39;2.37;;;1.40;;
3407;SDS011;1717;50.240;8.406;2022-09-09T11:48:37;1.70;;;1.40;;
3407;SDS011;1717;50.240;8.406;2022-09-09T11:51:09;3.40;;;1.63;;
3407;SDS011;1717;50.240;8.406;2022-09-09T11:53:47;5.73;;;2.07;;
3407;SDS011;1717;50.240;8.406;2022-09-09T11:56:23;4.57;;;1.87;;
3407;SDS011;1717;50.240;8.406;2022-09-09T11:58:56;4.03;;;1.87;;
3407;SDS011;1717;50.240;8.406;2022-09-09T12:01:35;4.00;;;1.33;;
3407;SDS011;1717;50.240;8.406;2022-09-09T12:07:18;2.83;;;1.67;;
3407;SDS011;1717;50.240;8.406;2022-09-09T12:09:54;2.90;;;1.67;;
3407;SDS011;1717;50.240;8.406;2022-09-09T12:12:27;2.53;;;1.40;;
3407;SDS011;1717;50.240;8.406;2022-09-09T12:14:59;1.60;;;1.07;;
3407;SDS011;1717;50.240;8.406;2022-09-09T12:17:43;3.50;;;1.50;;
3407;SDS011;1717;50.240;8.406;2022-09-09T12:20:14;3.50;;;1.67;;
3407;SDS011;1717;50.240;8.406;2022-09-09T12:22:46;3.10;;;1.40;;
3407;SDS011;1717;50.240;8.406;2022-09-09T12:25:26;3.80;;;1.03;;
3407;SDS011;1717;50.240;8.406;2022-09-09T12:28:03;3.03;;;1.20;;
3407;SDS011;1717;50.240;8.406;2022-09-09T12:30:37;3.17;;;1.20;;
3407;SDS011;1717;50.240;8.406;2022-09-09T12:33:16;2.50;;;1.43;;
3407;SDS011;1717;50.240;8.406;2022-09-09T12:35:47;5.03;;;1.53;;
3407;SDS011;1717;50.240;8.406;2022-09-09T12:38:21;3.40;;;1.67;;
3407;SDS011;1717;50.240;8.406;2022-09-09T12:40:55;3.37;;;1.47;;
3407;SDS011;1717;50.240;8.406;2022-09-09T12:43:24;3.60;;;1.07;;
3407;SDS011;1717;50.240;8.406;2022-09-09T12:45:53;2.90;;;1.20;;
3407;SDS011;1717;50.240;8.406;2022-09-09T12:48:25;4.87;;;1.50;;
3407;SDS011;1717;50.240;8.406;2022-09-09T12:50:58;3.27;;;1.63;;
3407;SDS011;1717;50.240;8.406;2022-09-09T12:53:26;2.30;;;1.70;;
3407;SDS011;1717;50.240;8.406;2022-09-09T12:55:57;2.83;;;1.20;;
3407;SDS011;1717;50.240;8.406;2022-09-09T12:58:27;2.70;;;1.27;;
3407;SDS011;1717;50.240;8.406;2022-09-09T13:00:58;5.73;;;1.33;;
3407;SDS011;1717;50.240;8.406;2022-09-09T13:03:26;2.57;;;1.20;;
3407;SDS011;1717;50.240;8.406;2022-09-09T13:05:56;4.37;;;1.27;;
3407;SDS011;1717;50.240;8.406;2022-09-09T13:08:36;5.07;;;2.17;;
3407;SDS011;1717;50.240;8.406;2022-09-09T13:11:04;1.83;;;1.33;;
3407;SDS011;1717;50.240;8.406;2022-09-09T13:13:36;5.27;;;1.90;;
3407;SDS011;1717;50.240;8.406;2022-09-09T13:16:06;2.03;;;1.23;;
3407;SDS011;1717;50.240;8.406;2022-09-09T13:18:44;3.10;;;1.40;;
3407;SDS011;1717;50.240;8.406;2022-09-09T13:21:13;3.17;;;1.43;;
3407;SDS011;1717;50.240;8.406;2022-09-09T13:23:40;6.93;;;1.57;;
3407;SDS011;1717;50.240;8.406;2022-09-09T13:26:20;3.70;;;1.63;;
3407;SDS011;1717;50.240;8.406;2022-09-09T13:28:49;2.13;;;1.17;;
3407;SDS011;1717;50.240;8.406;2022-09-09T13:31:21;1.93;;;1.33;;
3407;SDS011;1717;50.240;8.406;2022-09-09T13:33:52;3.70;;;1.17;;
3407;SDS011;1717;50.240;8.406;2022-09-09T13:36:28;3.63;;;1.03;;
3407;SDS011;1717;50.240;8.406;2022-09-09T13:38:58;3.93;;;0.80;;
3407;SDS011;1717;50.240;8.406;2022-09-09T13:41:28;3.00;;;1.13;;
3407;SDS011;1717;50.240;8.406;2022-09-09T13:43:58;8.67;;;1.20;;
3407;SDS011;1717;50.240;8.406;2022-09-09T13:46:31;1.97;;;0.90;;
3407;SDS011;1717;50.240;8.406;2022-09-09T13:49:02;1.80;;;0.97;;
3407;SDS011;1717;50.240;8.406;2022-09-09T13:51:47;1.93;;;0.90;;
3407;SDS011;1717;50.240;8.406;2022-09-09T13:54:17;2.30;;;1.17;;
3407;SDS011;1717;50.240;8.406;2022-09-09T13:56:45;2.50;;;1.00;;
3407;SDS011;1717;50.240;8.406;2022-09-09T13:59:15;0.97;;;0.60;;
3407;SDS011;1717;50.240;8.406;2022-09-09T14:01:45;4.23;;;0.90;;
3407;SDS011;1717;50.240;8.406;2022-09-09T14:04:12;1.60;;;0.90;;
3407;SDS011;1717;50.240;8.406;2022-09-09T14:06:40;2.23;;;1.07;;
3407;SDS011;1717;50.240;8.406;2022-09-09T14:09:11;2.20;;;0.70;;
3407;SDS011;1717;50.240;8.406;2022-09-09T14:11:40;6.30;;;1.20;;
3407;SDS011;1717;50.240;8.406;2022-09-09T14:14:07;1.10;;;0.80;;
3407;SDS011;1717;50.240;8.406;2022-09-09T14:16:35;4.37;;;1.20;;
3407;SDS011;1717;50.240;8.406;2022-09-09T14:19:03;1.80;;;0.90;;
3407;SDS011;1717;50.240;8.406;2022-09-09T14:21:30;2.30;;;0.80;;
3407;SDS011;1717;50.240;8.406;2022-09-09T14:23:57;3.03;;;1.73;;
3407;SDS011;1717;50.240;8.406;2022-09-09T14:26:26;1.80;;;1.00;;
3407;SDS011;1717;50.240;8.406;2022-09-09T14:28:53;3.20;;;0.90;;
3407;SDS011;1717;50.240;8.406;2022-09-09T14:31:21;1.87;;;1.07;;
3407;SDS011;1717;50.240;8.406;2022-09-09T14:33:48;1.33;;;0.93;;
3407;SDS011;1717;50.240;8.406;2022-09-09T14:36:15;5.53;;;1.40;;
3407;SDS011;1717;50.240;8.406;2022-09-09T14:38:42;3.10;;;1.33;;
3407;SDS011;1717;50.240;8.406;2022-09-09T14:41:10;2.70;;;1.00;;
3407;SDS011;1717;50.240;8.406;2022-09-09T14:43:39;2.70;;;1.23;;
3407;SDS011;1717;50.240;8.406;2022-09-09T14:46:07;1.60;;;1.10;;
3407;SDS011;1717;50.240;8.406;2022-09-09T14:48:35;1.37;;;1.00;;
3407;SDS011;1717;50.240;8.406;2022-09-09T14:51:05;5.37;;;1.50;;
3407;SDS011;1717;50.240;8.406;2022-09-09T14:53:33;3.27;;;0.93;;
3407;SDS011;1717;50.240;8.406;2022-09-09T14:56:04;2.97;;;1.17;;
3407;SDS011;1717;50.240;8.406;2022-09-09T14:58:33;4.33;;;1.30;;
3407;SDS011;1717;50.240;8.406;2022-09-09T15:01:05;2.77;;;1.37;;
3407;SDS011;1717;50.240;8.406;2022-09-09T15:03:34;3.70;;;1.30;;
3407;SDS011;1717;50.240;8.406;2022-09-09T15:06:05;2.13;;;1.33;;
3407;SDS011;1717;50.240;8.406;2022-09-09T15:08:34;3.13;;;1.23;;
3407;SDS011;1717;50.240;8.406;2022-09-09T15:11:01;1.40;;;1.00;;
3407;SDS011;1717;50.240;8.406;2022-09-09T15:13:29;3.03;;;1.17;;
3407;SDS011;1717;50.240;8.406;2022-09-09T15:16:00;6.50;;;1.80;;
3407;SDS011;1717;50.240;8.406;2022-09-09T15:18:31;1.00;;;0.90;;
3407;SDS011;1717;50.240;8.406;2022-09-09T15:20:58;1.37;;;1.07;;
3407;SDS011;1717;50.240;8.406;2022-09-09T15:23:28;2.73;;;0.80;;
3407;SDS011;1717;50.240;8.406;2022-09-09T15:25:56;4.97;;;0.97;;
3407;SDS011;1717;50.240;8.406;2022-09-09T15:28:23;2.77;;;1.07;;
3407;SDS011;1717;50.240;8.406;2022-09-09T15:30:50;6.57;;;1.13;;
3407;SDS011;1717;50.240;8.406;2022-09-09T15:33:20;4.00;;;0.90;;
3407;SDS011;1717;50.240;8.406;2022-09-09T15:35:48;2.93;;;1.00;;
3407;SDS011;1717;50.240;8.406;2022-09-09T15:38:16;4.00;;;0.80;;
3407;SDS011;1717;50.240;8.406;2022-09-09T15:40:44;2.00;;;1.07;;
3407;SDS011;1717;50.240;8.406;2022-09-09T15:43:19;3.10;;;1.20;;
3407;SDS011;1717;50.240;8.406;2022-09-09T15:45:46;2.70;;;1.47;;
3407;SDS011;1717;50.240;8.406;2022-09-09T15:48:15;2.30;;;0.90;;
3407;SDS011;1717;50.240;8.406;2022-09-09T15:50:43;2.10;;;0.80;;
3407;SDS011;1717;50.240;8.406;2022-09-09T15:53:10;1.60;;;1.10;;